Adger, Alabama
Current Conditions -  °F | °C
As of 3:53 PM on Monday 26 Jan 2015 (Local Time) from KBHM Reporting Station
Clear Clear  
Wind Chill:   Ceiling: Unl
Heat Index:   Visibility: 10mi
Dew Point: -3°   Wind: 12mph
Humidity: 46%   Direction: 280°W
Pressure: 29.98"   Gusts: NA
Location:  33.44°N, 87.19°W
Report Text: KBHM 262153Z 28010KT 10SM CLR 08/M03 A2998 RMK AO2 SLP152 T00831028
Loading
Personal Weather Stations






























Interactive Weather Map New forecast layout! Learn more

10-Day Weather Forecast

Advertisements
Track Severe Weather on mobile